createdAt,value
2019-02-08T00:01:30.314Z,6.40
2019-02-08T00:03:58.164Z,6.40
2019-02-08T00:06:31.020Z,6.40
2019-02-08T00:08:58.667Z,6.40
2019-02-08T00:11:26.387Z,6.30
2019-02-08T00:13:54.003Z,6.40
2019-02-08T00:16:22.181Z,6.40
2019-02-08T00:18:51.769Z,6.40
2019-02-08T00:21:19.331Z,6.40
2019-02-08T00:23:46.950Z,6.50
2019-02-08T00:26:14.592Z,6.60
2019-02-08T00:28:43.653Z,6.60
2019-02-08T00:31:11.643Z,6.70
2019-02-08T00:33:41.374Z,6.70
2019-02-08T00:36:09.062Z,6.70
2019-02-08T00:39:13.076Z,6.70
2019-02-08T00:41:40.708Z,6.80
2019-02-08T00:44:11.752Z,6.80
2019-02-08T00:46:42.424Z,6.90
2019-02-08T00:49:10.019Z,6.90
2019-02-08T00:51:37.933Z,6.90
2019-02-08T00:54:07.732Z,6.90
2019-02-08T00:57:14.840Z,6.80
2019-02-08T00:59:42.428Z,6.70
2019-02-08T01:02:10.284Z,6.70
2019-02-08T01:04:37.859Z,6.60
2019-02-08T01:07:05.550Z,6.60
2019-02-08T01:09:33.723Z,6.60
2019-02-08T01:12:01.351Z,6.60
2019-02-08T01:14:28.984Z,6.60
2019-02-08T01:16:56.572Z,6.70
2019-02-08T01:19:24.223Z,6.60
2019-02-08T01:21:51.768Z,6.60
2019-02-08T01:24:19.347Z,6.60
2019-02-08T01:26:56.277Z,6.60
2019-02-08T01:29:23.957Z,6.70
2019-02-08T01:31:54.542Z,6.80
2019-02-08T01:34:22.116Z,6.90
2019-02-08T01:37:03.196Z,6.90
2019-02-08T01:39:30.919Z,6.90
2019-02-08T01:41:58.503Z,7.00
2019-02-08T01:44:26.298Z,7.00
2019-02-08T01:47:01.616Z,7.00
2019-02-08T01:49:29.270Z,7.00
2019-02-08T01:51:56.889Z,7.00
2019-02-08T01:54:24.556Z,7.00
2019-02-08T01:56:52.123Z,7.00
2019-02-08T01:59:19.785Z,7.00
2019-02-08T02:01:47.894Z,7.00
2019-02-08T02:04:15.574Z,7.10
2019-02-08T02:06:45.385Z,7.10
2019-02-08T02:09:13.153Z,7.10
2019-02-08T02:11:40.771Z,7.10
2019-02-08T02:14:08.368Z,7.10
2019-02-08T02:16:38.167Z,7.10
2019-02-08T02:19:05.926Z,7.10
2019-02-08T02:21:34.025Z,7.10
2019-02-08T02:24:01.642Z,7.10
2019-02-08T02:26:29.575Z,7.10
2019-02-08T02:28:57.168Z,7.10
2019-02-08T02:31:24.729Z,7.10
2019-02-08T02:33:52.310Z,7.10
2019-02-08T02:36:19.878Z,7.20
2019-02-08T02:38:59.474Z,7.20
2019-02-08T02:41:27.098Z,7.20
2019-02-08T02:43:54.797Z,7.20
2019-02-08T02:46:22.423Z,7.30
2019-02-08T02:48:50.242Z,7.30
2019-02-08T02:51:17.933Z,7.30
2019-02-08T02:53:45.537Z,7.30
2019-02-08T02:56:13.125Z,7.30
2019-02-08T02:59:06.455Z,7.30
2019-02-08T03:01:34.066Z,7.30
2019-02-08T03:04:01.742Z,7.30
2019-02-08T03:06:29.502Z,7.30
2019-02-08T03:08:57.161Z,7.30
2019-02-08T03:11:33.471Z,7.30
2019-02-08T03:14:01.073Z,7.30
2019-02-08T03:16:40.949Z,7.30
2019-02-08T03:19:08.575Z,7.30
2019-02-08T03:21:36.210Z,7.30
2019-02-08T03:24:12.959Z,7.40
2019-02-08T03:26:40.409Z,7.40
2019-02-08T03:29:08.120Z,7.30
2019-02-08T03:31:35.789Z,7.40
2019-02-08T03:34:03.900Z,7.40
2019-02-08T03:36:40.857Z,7.40
2019-02-08T03:39:09.734Z,7.40
2019-02-08T03:41:37.326Z,7.40
2019-02-08T03:44:05.175Z,7.40
2019-02-08T03:46:47.872Z,7.30
2019-02-08T03:49:15.535Z,7.30
2019-02-08T03:51:43.217Z,7.30
2019-02-08T03:54:10.908Z,7.20
2019-02-08T03:56:46.768Z,7.30
2019-02-08T03:59:14.363Z,7.30
2019-02-08T04:01:42.043Z,7.30
2019-02-08T04:04:14.811Z,7.20
2019-02-08T04:06:51.915Z,7.20
2019-02-08T04:09:19.652Z,7.20
2019-02-08T04:11:47.257Z,7.20
2019-02-08T04:14:16.248Z,7.20
2019-02-08T04:17:16.393Z,7.20
2019-02-08T04:19:43.997Z,7.20
2019-02-08T04:22:11.620Z,7.20
2019-02-08T04:24:39.328Z,7.20
2019-02-08T04:27:12.198Z,7.20
2019-02-08T04:29:39.804Z,7.20
2019-02-08T04:32:07.519Z,7.20
2019-02-08T04:34:35.122Z,7.20
2019-02-08T04:37:09.916Z,7.20
2019-02-08T04:39:39.416Z,7.20
2019-02-08T04:42:07.005Z,7.20
2019-02-08T04:44:34.677Z,7.20
2019-02-08T04:47:02.409Z,7.20
2019-02-08T04:49:30.086Z,7.20
2019-02-08T04:51:57.700Z,7.20
2019-02-08T04:54:25.447Z,7.20
2019-02-08T04:56:54.359Z,7.20
2019-02-08T04:59:27.077Z,7.20
2019-02-08T05:01:54.773Z,7.20
2019-02-08T05:04:22.597Z,7.20
2019-02-08T05:06:56.650Z,7.20
2019-02-08T05:09:24.532Z,7.20
2019-02-08T05:11:52.194Z,7.20
2019-02-08T05:14:20.848Z,7.10
2019-02-08T05:16:54.221Z,7.10
2019-02-08T05:19:22.045Z,7.10
2019-02-08T05:21:51.616Z,7.10
2019-02-08T05:24:19.400Z,7.00
2019-02-08T05:26:54.894Z,7.10
2019-02-08T05:29:22.840Z,7.10
2019-02-08T05:31:54.215Z,7.10
2019-02-08T05:34:23.754Z,7.20
2019-02-08T05:37:45.649Z,7.20
2019-02-08T05:40:13.763Z,7.20
2019-02-08T05:42:42.939Z,7.20
2019-02-08T05:45:12.199Z,7.30
2019-02-08T05:47:44.775Z,7.30
2019-02-08T05:50:19.709Z,7.30
2019-02-08T05:52:51.713Z,7.30
2019-02-08T05:55:26.793Z,7.20
2019-02-08T05:58:21.156Z,7.30
2019-02-08T06:00:51.606Z,7.30
2019-02-08T06:03:24.235Z,7.30
2019-02-08T06:06:10.229Z,7.40
2019-02-08T06:08:43.365Z,7.30
2019-02-08T06:11:13.939Z,7.40
2019-02-08T06:13:43.597Z,7.40
2019-02-08T06:16:11.831Z,7.50
2019-02-08T06:19:06.882Z,7.50
2019-02-08T06:21:34.611Z,7.50
2019-02-08T06:24:05.439Z,7.50
2019-02-08T06:30:04.145Z,7.50
2019-02-08T06:32:31.817Z,7.50
2019-02-08T06:34:59.503Z,7.50
2019-02-08T06:37:57.604Z,7.50
2019-02-08T06:40:25.450Z,7.50
2019-02-08T06:42:54.790Z,7.50
2019-02-08T06:45:25.663Z,7.50
2019-02-08T06:48:02.076Z,7.60
2019-02-08T06:50:32.270Z,7.60
2019-02-08T06:53:00.188Z,7.60
2019-02-08T06:55:33.820Z,7.60
2019-02-08T06:58:32.884Z,7.50
2019-02-08T07:01:32.470Z,7.60
2019-02-08T07:04:25.186Z,7.60
2019-02-08T07:07:39.574Z,7.50
2019-02-08T07:10:41.513Z,7.60
2019-02-08T07:13:25.664Z,7.50
2019-02-08T07:16:14.296Z,7.50
2019-02-08T07:19:07.904Z,7.50
2019-02-08T07:21:41.009Z,7.50
2019-02-08T07:24:30.312Z,7.50
2019-02-08T07:27:39.628Z,7.50
2019-02-08T07:30:29.145Z,7.60
2019-02-08T07:33:16.460Z,7.50
2019-02-08T07:36:03.785Z,7.60
2019-02-08T07:38:51.410Z,7.60
2019-02-08T07:41:48.157Z,7.60
2019-02-08T07:44:42.299Z,7.60
2019-02-08T07:47:44.151Z,7.60
2019-02-08T07:50:29.690Z,7.60
2019-02-08T07:53:23.236Z,7.60
2019-02-08T07:55:55.950Z,7.60
2019-02-08T07:59:01.213Z,7.70
2019-02-08T08:01:47.043Z,7.70
2019-02-08T08:04:24.186Z,7.70
2019-02-08T08:07:14.624Z,7.70
2019-02-08T08:10:03.466Z,7.80
2019-02-08T08:13:09.557Z,7.80
2019-02-08T08:15:56.435Z,7.80
2019-02-08T08:18:43.866Z,7.80
2019-02-08T08:21:33.768Z,7.90
2019-02-08T08:24:36.778Z,7.90
2019-02-08T08:27:17.270Z,7.90
2019-02-08T08:30:10.484Z,8.00
2019-02-08T08:32:48.681Z,8.00
2019-02-08T08:36:08.309Z,8.00
2019-02-08T08:39:20.122Z,8.00
2019-02-08T08:42:25.526Z,8.00
2019-02-08T08:45:34.950Z,8.10
2019-02-08T08:48:44.320Z,8.10
2019-02-08T08:51:37.703Z,8.10
2019-02-08T08:54:59.254Z,8.20
2019-02-08T09:01:19.324Z,8.20
2019-02-08T09:04:25.964Z,8.30
2019-02-08T09:07:47.218Z,8.30
2019-02-08T09:11:11.868Z,8.30
2019-02-08T09:13:56.579Z,8.30
2019-02-08T09:17:05.398Z,8.40
2019-02-08T09:20:35.756Z,8.40
2019-02-08T09:23:43.748Z,8.50
2019-02-08T09:26:45.472Z,8.50
2019-02-08T09:29:37.559Z,8.60
2019-02-08T09:33:02.081Z,8.60
2019-02-08T09:36:23.870Z,8.70
2019-02-08T09:39:40.925Z,8.70
2019-02-08T09:42:52.132Z,8.80
2019-02-08T09:45:53.015Z,8.80
2019-02-08T09:49:11.775Z,8.80
2019-02-08T09:52:29.157Z,8.80
2019-02-08T09:55:37.085Z,8.90
2019-02-08T09:58:42.216Z,8.90
2019-02-08T10:01:53.640Z,8.90
2019-02-08T10:05:03.473Z,9.00
2019-02-08T10:08:03.387Z,9.00
2019-02-08T10:11:08.512Z,9.10
2019-02-08T10:14:39.068Z,9.10
2019-02-08T10:17:37.365Z,9.10
2019-02-08T10:21:01.888Z,9.10
2019-02-08T10:27:23.132Z,9.20
2019-02-08T10:30:16.036Z,9.30
2019-02-08T10:33:20.358Z,9.40
2019-02-08T10:36:26.888Z,9.40
2019-02-08T10:39:37.788Z,9.50
2019-02-08T10:42:51.552Z,9.50
2019-02-08T10:46:17.495Z,9.60
2019-02-08T10:49:28.461Z,9.60
2019-02-08T10:52:26.255Z,9.60
2019-02-08T10:55:30.426Z,9.70
2019-02-08T10:58:40.648Z,9.70
2019-02-08T11:01:43.379Z,9.70
2019-02-08T11:04:57.571Z,9.80
2019-02-08T11:08:13.051Z,9.90
2019-02-08T11:11:24.056Z,9.80
2019-02-08T11:14:34.980Z,9.90
2019-02-08T11:17:54.590Z,9.90
2019-02-08T11:20:22.326Z,9.90
2019-02-08T11:22:53.154Z,9.90
2019-02-08T11:25:33.758Z,9.90
2019-02-08T11:28:22.851Z,10.00
2019-02-08T11:35:24.892Z,9.90
2019-02-08T11:42:07.948Z,9.80
2019-02-08T11:45:06.374Z,9.70
2019-02-08T11:51:41.312Z,9.80
2019-02-08T11:58:04.068Z,9.80
2019-02-08T12:01:08.840Z,9.80
2019-02-08T12:04:17.902Z,9.80
2019-02-08T12:07:26.696Z,9.80
2019-02-08T12:10:26.606Z,9.90
2019-02-08T12:17:06.120Z,9.90
2019-02-08T12:19:42.400Z,9.90
2019-02-08T12:22:14.670Z,9.90
2019-02-08T12:24:44.054Z,9.90
2019-02-08T12:27:42.656Z,9.90
2019-02-08T12:30:21.194Z,9.90
2019-02-08T12:32:53.099Z,9.80
2019-02-08T12:35:23.417Z,9.90
2019-02-08T12:44:29.799Z,9.90
2019-02-08T12:48:07.535Z,9.90
2019-02-08T12:50:37.567Z,9.90
2019-02-08T12:53:12.911Z,10.00
2019-02-08T12:55:49.103Z,9.90
2019-02-08T12:59:23.719Z,10.00
2019-02-08T13:01:55.401Z,10.00
2019-02-08T13:04:37.729Z,10.10
2019-02-08T13:07:25.328Z,10.10
2019-02-08T13:09:59.806Z,10.10
2019-02-08T13:12:33.043Z,10.10
2019-02-08T13:15:07.477Z,10.10
2019-02-08T13:21:12.479Z,10.10
2019-02-08T13:23:48.245Z,10.10
2019-02-08T13:26:23.777Z,10.00
2019-02-08T13:28:55.663Z,10.10
2019-02-08T13:31:32.010Z,10.10
2019-02-08T13:34:03.367Z,10.10
2019-02-08T13:37:08.817Z,10.10
2019-02-08T13:39:39.809Z,10.10
2019-02-08T13:42:13.451Z,10.10
2019-02-08T13:44:47.851Z,10.10
2019-02-08T13:47:47.731Z,10.00
2019-02-08T13:50:21.251Z,10.00
2019-02-08T13:52:50.099Z,10.00
2019-02-08T13:55:19.061Z,10.00
2019-02-08T13:58:18.395Z,10.00
2019-02-08T14:00:58.246Z,10.00
2019-02-08T14:03:27.719Z,10.00
2019-02-08T14:06:04.423Z,10.00
2019-02-08T14:08:45.947Z,9.90
2019-02-08T14:11:14.285Z,10.00
2019-02-08T14:13:42.296Z,9.90
2019-02-08T14:16:14.163Z,10.00
2019-02-08T14:19:36.796Z,10.00
2019-02-08T14:22:04.694Z,10.00
2019-02-08T14:24:33.006Z,10.00
2019-02-08T14:27:15.026Z,10.00
2019-02-08T14:29:42.625Z,10.00
2019-02-08T14:32:10.136Z,10.10
2019-02-08T14:41:56.932Z,10.10
2019-02-08T14:44:46.559Z,10.10
2019-02-08T14:50:51.194Z,10.20
2019-02-08T14:53:41.506Z,10.10
2019-02-08T14:56:38.138Z,10.20
2019-02-08T14:59:14.637Z,10.20
2019-02-08T15:01:50.564Z,10.20
2019-02-08T15:04:36.249Z,10.20
2019-02-08T15:10:56.375Z,10.20
2019-02-08T15:13:45.484Z,10.20
2019-02-08T15:16:22.658Z,10.20
2019-02-08T15:18:58.494Z,10.20
2019-02-08T15:21:41.813Z,10.20
2019-02-08T15:24:24.955Z,10.20
2019-02-08T15:27:04.110Z,10.20
2019-02-08T15:29:42.914Z,10.20
2019-02-08T15:32:30.324Z,10.30
2019-02-08T15:35:11.273Z,10.20
2019-02-08T15:41:22.718Z,10.20
2019-02-08T15:43:57.095Z,10.20
2019-02-08T15:46:35.788Z,10.20
2019-02-08T15:49:14.466Z,10.20
2019-02-08T15:51:55.190Z,10.20
2019-02-08T16:00:57.321Z,10.20
2019-02-08T16:03:47.128Z,10.20
2019-02-08T16:06:33.034Z,10.10
2019-02-08T16:09:07.538Z,10.20
2019-02-08T16:11:47.790Z,10.20
2019-02-08T16:14:19.994Z,10.20
2019-02-08T16:24:42.843Z,10.20
2019-02-08T16:34:48.605Z,10.10
2019-02-08T16:50:44.775Z,10.10
2019-02-08T16:53:53.087Z,10.20
2019-02-08T17:00:28.140Z,10.10
2019-02-08T17:03:16.814Z,10.10
2019-02-08T17:06:00.017Z,10.20
2019-02-08T17:09:43.980Z,10.10
2019-02-08T17:12:01.128Z,10.20
2019-02-08T17:15:02.282Z,10.10
2019-02-08T17:17:55.241Z,10.20
2019-02-08T17:20:36.885Z,10.20
2019-02-08T17:23:04.693Z,10.20
2019-02-08T17:25:35.950Z,10.20
2019-02-08T17:28:51.194Z,10.20
2019-02-08T17:31:18.958Z,10.20
2019-02-08T17:33:46.513Z,10.20
2019-02-08T17:36:19.002Z,10.20
2019-02-08T17:38:59.676Z,10.20
2019-02-08T17:41:27.491Z,10.20
2019-02-08T17:43:55.633Z,10.20
2019-02-08T17:46:23.225Z,10.10
2019-02-08T17:48:54.211Z,10.20
2019-02-08T17:51:25.875Z,10.10
2019-02-08T17:54:02.816Z,10.10
2019-02-08T17:56:40.507Z,10.10
2019-02-08T17:59:26.558Z,10.10
2019-02-08T18:01:55.718Z,10.10
2019-02-08T18:04:23.492Z,10.10
2019-02-08T18:07:00.718Z,10.20
2019-02-08T18:09:30.798Z,10.10
2019-02-08T18:11:58.630Z,10.10
2019-02-08T18:14:30.928Z,10.10
2019-02-08T18:16:58.717Z,10.20
2019-02-08T18:19:26.335Z,10.20
2019-02-08T18:21:53.916Z,10.10
2019-02-08T18:24:21.652Z,10.10
2019-02-08T18:26:49.377Z,10.10
2019-02-08T18:29:44.860Z,10.20
2019-02-08T18:32:13.952Z,10.10
2019-02-08T18:34:42.972Z,10.10
2019-02-08T18:37:28.936Z,10.10
2019-02-08T18:40:13.084Z,10.00
2019-02-08T18:43:20.578Z,10.10
2019-02-08T18:46:30.251Z,10.10
2019-02-08T18:49:05.760Z,9.90
2019-02-08T18:51:36.391Z,9.90
2019-02-08T18:54:04.671Z,9.80
2019-02-08T18:56:32.398Z,9.70
2019-02-08T18:58:59.999Z,9.70
2019-02-08T19:01:27.972Z,9.70
2019-02-08T19:03:58.848Z,9.70
2019-02-08T19:06:29.088Z,9.70
2019-02-08T19:08:56.762Z,9.70
2019-02-08T19:11:24.739Z,9.80
2019-02-08T19:13:58.484Z,9.80
2019-02-08T19:16:29.323Z,9.70
2019-02-08T19:19:42.759Z,9.80
2019-02-08T19:22:22.555Z,9.70
2019-02-08T19:25:27.856Z,9.60
2019-02-08T19:28:25.941Z,9.60
2019-02-08T19:31:08.079Z,9.60
2019-02-08T19:33:43.095Z,9.50
2019-02-08T19:40:47.139Z,9.50
2019-02-08T19:50:51.989Z,9.40
2019-02-08T19:53:37.571Z,9.40
2019-02-08T19:56:13.622Z,9.40
2019-02-08T19:58:57.260Z,9.40
2019-02-08T20:01:32.891Z,9.40
2019-02-08T20:04:05.349Z,9.50
2019-02-08T20:06:55.330Z,9.50
2019-02-08T20:09:45.065Z,9.60
2019-02-08T20:16:15.766Z,9.50
2019-02-08T20:18:45.877Z,9.60
2019-02-08T20:21:51.396Z,9.60
2019-02-08T20:24:41.411Z,9.70
2019-02-08T20:27:26.611Z,9.80
2019-02-08T20:29:51.938Z,9.70
2019-02-08T20:32:49.811Z,9.80
2019-02-08T20:36:17.507Z,9.70
2019-02-08T20:39:07.785Z,9.60
2019-02-08T20:42:12.163Z,9.60
2019-02-08T20:44:23.575Z,9.50
2019-02-08T20:47:24.402Z,9.40
2019-02-08T20:50:24.294Z,9.40
2019-02-08T20:53:03.132Z,9.30
2019-02-08T20:55:34.762Z,9.30
2019-02-08T20:58:49.834Z,9.30
2019-02-08T21:01:49.159Z,9.30
2019-02-08T21:05:17.454Z,9.30
2019-02-08T21:15:18.278Z,9.10
2019-02-08T21:18:49.097Z,9.10
2019-02-08T21:22:24.526Z,9.10
2019-02-08T21:25:51.793Z,9.00
2019-02-08T21:28:36.693Z,9.00
2019-02-08T21:40:47.976Z,8.90
2019-02-08T21:43:44.556Z,9.00
2019-02-08T21:46:14.943Z,8.90
2019-02-08T21:58:35.786Z,9.20
2019-02-08T22:01:10.870Z,9.00
2019-02-08T22:04:00.586Z,9.00
2019-02-08T22:07:05.717Z,9.00
2019-02-08T22:09:43.565Z,8.90
2019-02-08T22:15:54.642Z,8.90
2019-02-08T22:19:17.438Z,9.00
2019-02-08T22:29:14.174Z,9.10
2019-02-08T22:31:54.851Z,9.00
2019-02-08T22:35:13.577Z,8.90
2019-02-08T22:37:57.622Z,9.00
2019-02-08T22:40:44.952Z,9.00
2019-02-08T22:43:19.263Z,8.90
2019-02-08T22:45:50.905Z,8.90
2019-02-08T22:48:32.307Z,8.90
2019-02-08T23:08:41.809Z,9.00
2019-02-08T23:11:12.352Z,9.00
2019-02-08T23:13:40.455Z,9.00
2019-02-08T23:16:09.629Z,9.00
2019-02-08T23:19:20.357Z,9.10
2019-02-08T23:22:02.836Z,9.00
2019-02-08T23:24:43.277Z,9.00
2019-02-08T23:27:13.871Z,9.00
2019-02-08T23:29:41.767Z,9.00
2019-02-08T23:32:09.797Z,9.00
2019-02-08T23:34:44.250Z,8.90
2019-02-08T23:42:15.877Z,8.90
2019-02-08T23:44:11.147Z,8.80
2019-02-08T23:46:51.363Z,8.80
2019-02-08T23:49:19.291Z,8.80
2019-02-08T23:51:50.951Z,8.80
2019-02-08T23:54:18.919Z,8.80
2019-02-08T23:56:46.638Z,8.80
2019-02-08T23:59:14.482Z,8.80
